Time;durP1;ratioP1;P1;durP2;ratioP2;P2;SDS_P1;SDS_P2;PMS_P1;PMS_P2;Temp;Humidity;BMP_temperature;BMP_pressure;BME280_temperature;BME280_humidity;BME280_pressure;Samples;Min_cycle;Max_cycle;Signal;HPM_P1;HPM_P2
2024/04/07 00:00:01;;;;;;;15.70;6.68;;;14.90;99.90;;;;;;4849859;29;20073;-88
2024/04/07 00:02:29;;;;;;;17.77;9.15;;;14.70;99.90;;;;;;4839540;29;20529;-86
2024/04/07 00:05:01;;;;;;;10.27;6.13;;;14.60;99.90;;;;;;4842176;29;20429;-88
2024/04/07 00:07:30;;;;;;;14.73;6.55;;;14.60;99.90;;;;;;4836838;29;20128;-88
2024/04/07 00:09:57;;;;;;;11.27;6.10;;;14.60;99.90;;;;;;4837043;29;20049;-88
2024/04/07 00:12:25;;;;;;;9.63;6.03;;;14.70;99.90;;;;;;4836626;29;20069;-88
2024/04/07 00:14:52;;;;;;;13.05;6.22;;;14.80;99.90;;;;;;4838459;29;20089;-87
2024/04/07 00:17:20;;;;;;;11.00;5.82;;;14.80;99.90;;;;;;4846827;29;20085;-88
2024/04/07 00:19:47;;;;;;;14.10;6.25;;;14.90;99.90;;;;;;4854804;29;20091;-88
2024/04/07 00:22:17;;;;;;;9.98;5.32;;;14.80;99.90;;;;;;4843213;29;20053;-87
2024/04/07 00:24:44;;;;;;;11.82;5.60;;;14.80;99.90;;;;;;4830282;29;20045;-88
2024/04/07 00:27:12;;;;;;;15.48;6.35;;;14.80;99.90;;;;;;4864031;29;20045;-88
2024/04/07 00:29:39;;;;;;;11.30;6.30;;;14.70;99.90;;;;;;4847409;29;20041;-88
2024/04/07 00:32:08;;;;;;;12.55;6.70;;;14.70;99.90;;;;;;4833783;29;20132;-88
2024/04/07 00:34:35;;;;;;;10.77;6.10;;;14.60;99.90;;;;;;4840971;29;20053;-87
2024/04/07 00:37:03;;;;;;;11.48;6.18;;;14.60;99.90;;;;;;4840371;29;20041;-88
2024/04/07 00:39:32;;;;;;;11.27;5.78;;;14.60;99.90;;;;;;4836363;29;20053;-87
2024/04/07 00:42:00;;;;;;;14.50;7.03;;;14.60;99.90;;;;;;4835931;29;20517;-89
2024/04/07 00:44:26;;;;;;;12.30;6.43;;;14.60;99.90;;;;;;4846827;29;20566;-89
2024/04/07 00:46:55;;;;;;;13.38;6.63;;;14.50;99.90;;;;;;4822139;29;20036;-89
2024/04/07 00:49:22;;;;;;;12.20;7.43;;;14.50;99.90;;;;;;4861867;29;20138;-89
2024/04/07 00:51:50;;;;;;;14.02;6.65;;;14.50;99.90;;;;;;4834983;29;20105;-90
2024/04/07 00:54:20;;;;;;;13.05;6.97;;;14.50;99.90;;;;;;4839398;29;20049;-89
2024/04/07 00:56:51;;;;;;;12.52;6.65;;;14.40;99.90;;;;;;4835409;29;20049;-90
2024/04/07 00:59:18;;;;;;;11.70;6.28;;;14.40;99.90;;;;;;4833011;29;20048;-91
2024/04/07 01:01:46;;;;;;;11.48;5.80;;;14.40;99.90;;;;;;4847793;29;20043;-90
2024/04/07 01:04:13;;;;;;;12.93;6.75;;;14.40;99.90;;;;;;4834907;29;20042;-90
2024/04/07 01:06:41;;;;;;;11.98;6.32;;;14.30;99.90;;;;;;4843751;29;20046;-90
2024/04/07 01:09:09;;;;;;;10.75;5.57;;;14.30;99.90;;;;;;4834414;29;20045;-91
2024/04/07 01:11:38;;;;;;;13.18;6.38;;;14.30;99.90;;;;;;4848938;29;20045;-90
2024/04/07 01:14:06;;;;;;;10.68;5.95;;;14.10;99.90;;;;;;4851258;29;20077;-90
2024/04/07 01:16:35;;;;;;;11.63;5.80;;;14.20;99.90;;;;;;4832400;29;20076;-91
2024/04/07 01:19:02;;;;;;;11.82;6.13;;;14.20;99.90;;;;;;4849471;29;20049;-89
2024/04/07 01:21:29;;;;;;;10.13;6.00;;;14.20;99.90;;;;;;4835037;29;20056;-90
2024/04/07 01:23:58;;;;;;;10.52;5.47;;;14.20;99.90;;;;;;4837397;29;20113;-91
2024/04/07 01:26:27;;;;;;;9.68;5.40;;;14.20;99.90;;;;;;4843560;29;20034;-89
2024/04/07 01:28:54;;;;;;;11.05;5.78;;;14.10;99.90;;;;;;4830075;29;20508;-90
2024/04/07 01:31:22;;;;;;;9.43;4.88;;;14.10;99.90;;;;;;4838713;29;20140;-90
2024/04/07 01:33:49;;;;;;;9.43;5.18;;;14.10;99.90;;;;;;4831336;29;20053;-90
2024/04/07 01:36:16;;;;;;;10.43;5.53;;;14.10;99.90;;;;;;4839874;29;20045;-90
2024/04/07 01:38:43;;;;;;;8.52;4.85;;;14.10;99.90;;;;;;4831122;29;20075;-90
2024/04/07 01:41:13;;;;;;;11.23;4.75;;;14.00;99.90;;;;;;4836877;29;20041;-88
2024/04/07 01:43:40;;;;;;;9.63;4.65;;;14.00;99.90;;;;;;4844181;29;20109;-91
2024/04/07 01:46:08;;;;;;;12.60;5.50;;;13.90;99.90;;;;;;4758237;29;2255129;-91
2024/04/07 01:48:34;;;;;;;11.38;5.03;;;14.00;99.90;;;;;;4831730;29;20042;-90
2024/04/07 01:51:03;;;;;;;8.15;4.93;;;13.90;99.90;;;;;;4837165;29;20408;-91
2024/04/07 01:53:29;;;;;;;10.55;5.20;;;13.90;99.90;;;;;;4839849;29;20041;-91
2024/04/07 01:55:58;;;;;;;12.88;5.38;;;13.90;99.90;;;;;;4850261;29;20041;-91
2024/04/07 01:58:27;;;;;;;10.43;5.07;;;13.90;99.90;;;;;;4839334;29;20049;-90
2024/04/07 02:00:55;;;;;;;11.13;5.60;;;13.90;99.90;;;;;;4833889;29;20041;-91
2024/04/07 02:03:22;;;;;;;12.38;5.63;;;13.80;99.90;;;;;;4835874;29;20100;-90
2024/04/07 02:05:50;;;;;;;13.05;6.07;;;13.80;99.90;;;;;;4836098;29;20047;-90
2024/04/07 02:08:17;;;;;;;11.75;5.82;;;13.90;99.90;;;;;;4843500;29;20056;-91
2024/04/07 02:10:50;;;;;;;12.60;6.30;;;13.90;99.90;;;;;;4839327;29;20037;-90
2024/04/07 02:13:17;;;;;;;12.43;6.18;;;13.90;99.90;;;;;;4851237;29;20045;-90
2024/04/07 02:15:48;;;;;;;11.73;6.97;;;13.90;99.90;;;;;;4847716;29;20104;-90
2024/04/07 02:18:15;;;;;;;10.60;6.10;;;13.80;99.90;;;;;;4840534;29;20522;-90
2024/04/07 02:20:51;;;;;;;12.82;6.43;;;13.80;99.90;;;;;;4837538;29;20041;-88
2024/04/07 02:23:19;;;;;;;10.63;5.40;;;13.80;99.90;;;;;;4831104;29;20079;-92
2024/04/07 02:25:47;;;;;;;10.60;5.68;;;13.80;99.90;;;;;;4837350;29;20052;-91
2024/04/07 02:28:13;;;;;;;15.32;5.75;;;13.70;99.90;;;;;;4842377;29;20128;-90
2024/04/07 02:30:41;;;;;;;10.48;5.90;;;13.70;99.90;;;;;;4835581;29;20588;-89
2024/04/07 02:33:10;;;;;;;10.52;6.22;;;13.70;99.90;;;;;;4854918;29;20045;-90
2024/04/07 02:35:38;;;;;;;11.50;5.57;;;13.60;99.90;;;;;;4850747;29;20076;-90
2024/04/07 02:38:06;;;;;;;10.60;6.47;;;13.60;99.90;;;;;;4840251;29;20040;-91
2024/04/07 02:40:34;;;;;;;10.40;5.97;;;13.50;99.90;;;;;;4840194;29;20049;-90
2024/04/07 02:43:01;;;;;;;9.85;5.25;;;13.60;99.90;;;;;;4842642;29;20057;-90
2024/04/07 02:48:18;;;;;;;10.77;5.78;;;13.50;99.90;;;;;;4841543;29;20082;-91
2024/04/07 02:50:46;;;;;;;11.23;5.60;;;13.50;99.90;;;;;;4848273;29;20068;-90
2024/04/07 02:53:14;;;;;;;10.75;6.43;;;13.50;99.90;;;;;;4839427;29;20093;-90
2024/04/07 02:55:43;;;;;;;12.93;6.13;;;13.40;99.90;;;;;;4849649;29;20045;-90
2024/04/07 02:58:10;;;;;;;9.63;6.07;;;13.40;99.90;;;;;;4835072;29;20086;-91
2024/04/07 03:00:38;;;;;;;10.88;6.00;;;13.40;99.90;;;;;;4837601;29;20049;-90
2024/04/07 03:03:05;;;;;;;9.38;5.43;;;13.40;99.90;;;;;;4833366;29;20065;-90
2024/04/07 03:05:35;;;;;;;8.65;5.10;;;13.40;99.90;;;;;;4843701;29;20117;-90
2024/04/07 03:08:02;;;;;;;11.95;5.80;;;13.40;99.90;;;;;;4841744;29;20037;-91
2024/04/07 03:10:30;;;;;;;10.43;5.63;;;13.30;99.90;;;;;;4850073;29;20073;-90
2024/04/07 03:12:57;;;;;;;14.90;6.05;;;13.30;99.90;;;;;;4839682;29;20045;-91
2024/04/07 03:15:26;;;;;;;9.45;5.53;;;13.30;99.90;;;;;;4836490;29;20140;-91
2024/04/07 03:17:52;;;;;;;12.18;6.63;;;13.30;99.90;;;;;;4841633;29;20038;-89
2024/04/07 03:20:21;;;;;;;14.10;6.35;;;13.20;99.90;;;;;;4843546;29;20045;-90
2024/04/07 03:22:50;;;;;;;14.20;6.53;;;13.20;99.90;;;;;;4834140;29;20042;-91
2024/04/07 03:25:18;;;;;;;9.98;6.28;;;13.20;99.90;;;;;;4832477;29;20048;-90
2024/04/07 03:27:45;;;;;;;9.02;5.90;;;13.20;99.90;;;;;;4841316;29;20045;-90
2024/04/07 03:30:13;;;;;;;12.02;6.32;;;13.20;99.90;;;;;;4855848;29;20033;-91
2024/04/07 03:32:40;;;;;;;9.82;5.50;;;13.20;99.90;;;;;;4853878;29;20049;-91
2024/04/07 03:35:09;;;;;;;9.38;6.47;;;13.20;99.90;;;;;;4839125;29;20771;-90
2024/04/07 03:37:37;;;;;;;9.70;6.25;;;13.50;99.90;;;;;;4850683;29;20391;-91
2024/04/07 03:40:08;;;;;;;12.57;6.03;;;13.10;99.90;;;;;;4839377;29;20029;-91
2024/04/07 03:42:36;;;;;;;10.77;5.90;;;13.10;99.90;;;;;;4831550;29;20521;-91
2024/04/07 03:45:07;;;;;;;9.55;5.57;;;13.10;99.90;;;;;;4835872;29;20050;-92
2024/04/07 03:47:35;;;;;;;7.72;5.30;;;13.10;99.90;;;;;;4853488;29;20060;-89
2024/04/07 03:50:03;;;;;;;9.38;5.82;;;13.10;99.90;;;;;;4825160;29;20101;-92
2024/04/07 03:52:31;;;;;;;10.07;5.30;;;13.00;99.90;;;;;;4835882;29;20140;-91
2024/04/07 03:54:59;;;;;;;7.78;4.60;;;13.00;99.90;;;;;;4838594;29;20045;-91
2024/04/07 03:57:30;;;;;;;8.38;5.10;;;13.10;99.90;;;;;;4839154;29;20386;-91
2024/04/07 03:59:57;;;;;;;8.55;5.13;;;13.10;99.90;;;;;;4850343;29;20045;-91
2024/04/07 04:02:28;;;;;;;10.25;5.50;;;13.10;99.90;;;;;;4835669;29;20132;-91
2024/04/07 04:04:58;;;;;;;8.80;5.45;;;13.10;99.90;;;;;;4845978;29;20584;-91
2024/04/07 04:07:28;;;;;;;10.18;5.90;;;13.10;99.90;;;;;;4838530;29;20046;-90
2024/04/07 04:09:56;;;;;;;9.05;5.30;;;13.10;99.90;;;;;;4834814;29;20144;-90
2024/04/07 04:12:25;;;;;;;8.50;4.80;;;13.10;99.90;;;;;;4819637;29;20068;-90
2024/04/07 04:14:55;;;;;;;8.70;5.53;;;13.10;99.90;;;;;;4835539;29;20059;-91
2024/04/07 04:17:22;;;;;;;9.18;5.20;;;13.10;99.90;;;;;;4849862;29;20050;-92
2024/04/07 04:19:50;;;;;;;9.13;5.15;;;13.00;99.90;;;;;;4830772;29;20113;-88
2024/04/07 04:22:19;;;;;;;14.00;5.93;;;13.00;99.90;;;;;;4851744;29;20037;-91
2024/04/07 04:24:45;;;;;;;10.35;6.28;;;13.10;99.90;;;;;;4838620;29;20098;-91
2024/04/07 04:27:15;;;;;;;10.63;5.65;;;13.10;99.90;;;;;;4849823;29;22330;-92
2024/04/07 04:29:42;;;;;;;14.95;6.30;;;13.10;99.90;;;;;;4839571;29;20513;-91
2024/04/07 04:32:12;;;;;;;12.38;6.32;;;13.10;99.90;;;;;;4853704;29;20049;-92
2024/04/07 04:34:39;;;;;;;10.80;6.40;;;13.20;99.90;;;;;;4835044;29;20132;-90
2024/04/07 04:37:07;;;;;;;9.48;5.57;;;13.20;99.90;;;;;;4831499;29;20052;-92
2024/04/07 04:39:34;;;;;;;8.73;5.32;;;13.20;99.90;;;;;;4851394;29;20045;-91
2024/04/07 04:42:01;;;;;;;9.70;6.35;;;13.20;99.90;;;;;;4835496;29;20537;-89
2024/04/07 04:44:28;;;;;;;9.30;6.10;;;13.30;99.90;;;;;;4839288;29;20061;-90
2024/04/07 04:46:56;;;;;;;13.15;6.35;;;13.30;99.90;;;;;;4830750;29;20140;-89
2024/04/07 04:49:25;;;;;;;14.35;5.28;;;13.30;99.90;;;;;;4851819;29;20128;-89
2024/04/07 04:51:56;;;;;;;10.48;5.70;;;13.40;99.90;;;;;;4833469;29;20097;-86
2024/04/07 04:54:23;;;;;;;12.75;6.57;;;13.40;99.90;;;;;;4850862;29;20135;-89
2024/04/07 04:56:51;;;;;;;11.07;6.15;;;13.40;99.90;;;;;;4831681;29;20600;-88
2024/04/07 04:59:18;;;;;;;12.68;6.68;;;13.50;99.90;;;;;;4850120;29;20117;-88
2024/04/07 05:01:46;;;;;;;11.77;6.30;;;14.50;99.90;;;;;;4851302;29;20036;-89
2024/04/07 05:04:13;;;;;;;11.02;6.30;;;13.50;99.90;;;;;;4837791;29;20370;-87
2024/04/07 05:06:42;;;;;;;10.23;6.72;;;13.60;99.90;;;;;;4829961;29;20089;-89
2024/04/07 05:09:09;;;;;;;12.88;6.55;;;13.50;99.90;;;;;;4845437;29;20226;-89
2024/04/07 05:11:37;;;;;;;11.38;6.13;;;13.60;99.90;;;;;;4847033;29;20037;-87
2024/04/07 05:14:04;;;;;;;10.55;7.03;;;13.70;99.90;;;;;;4839099;29;20041;-89
2024/04/07 05:16:32;;;;;;;9.63;6.22;;;13.70;99.90;;;;;;4844025;29;20518;-88
2024/04/07 05:18:59;;;;;;;11.23;6.70;;;13.70;99.90;;;;;;4831053;29;20052;-86
2024/04/07 05:21:27;;;;;;;10.07;5.70;;;13.80;99.90;;;;;;4835583;29;20510;-88
2024/04/07 05:23:56;;;;;;;10.75;6.53;;;13.80;99.90;;;;;;4833695;29;20052;-89
2024/04/07 05:26:25;;;;;;;11.15;6.57;;;13.80;99.90;;;;;;4851891;29;20053;-86
2024/04/07 05:28:53;;;;;;;9.48;5.82;;;13.80;99.90;;;;;;4834993;29;20238;-89
2024/04/07 05:31:21;;;;;;;10.00;6.18;;;13.90;99.90;;;;;;4838398;29;20048;-89
2024/04/07 05:33:48;;;;;;;12.48;7.18;;;13.90;99.90;;;;;;4853561;29;20041;-89
2024/04/07 05:36:16;;;;;;;9.65;6.70;;;13.90;99.90;;;;;;4837162;29;20048;-89
2024/04/07 05:38:45;;;;;;;10.48;5.93;;;14.00;99.90;;;;;;4834435;29;20053;-87
2024/04/07 05:41:15;;;;;;;12.30;6.93;;;14.00;99.90;;;;;;4856527;29;20516;-88
2024/04/07 05:43:44;;;;;;;11.20;6.68;;;14.10;99.90;;;;;;4834522;29;20085;-89
2024/04/07 05:46:13;;;;;;;12.32;6.63;;;14.10;99.90;;;;;;4855156;29;20085;-89
2024/04/07 05:48:39;;;;;;;12.95;6.22;;;14.20;99.90;;;;;;4834431;29;20084;-89
2024/04/07 05:51:13;;;;;;;9.45;5.35;;;14.30;99.90;;;;;;4840269;29;20045;-90
2024/04/07 05:53:40;;;;;;;10.50;5.35;;;14.30;99.90;;;;;;4836262;29;20045;-89
2024/04/07 05:56:12;;;;;;;10.48;6.18;;;14.40;99.90;;;;;;4849383;29;20040;-89
2024/04/07 05:58:40;;;;;;;11.73;6.73;;;14.40;99.90;;;;;;4850008;29;20052;-88
2024/04/07 06:01:09;;;;;;;12.55;6.28;;;14.50;99.90;;;;;;4833856;29;20151;-88
2024/04/07 06:03:35;;;;;;;8.77;5.82;;;14.60;99.90;;;;;;4850197;29;20050;-88
2024/04/07 06:06:04;;;;;;;11.20;6.47;;;14.70;99.90;;;;;;4853355;29;20132;-88
2024/04/07 06:08:31;;;;;;;10.98;5.38;;;14.80;99.90;;;;;;4836155;29;20042;-85
2024/04/07 06:11:01;;;;;;;9.45;5.65;;;15.10;99.90;;;;;;4850711;29;20037;-88
2024/04/07 06:13:28;;;;;;;10.30;4.78;;;15.00;99.90;;;;;;4853160;29;20144;-86
2024/04/07 06:15:58;;;;;;;7.63;5.30;;;15.10;99.90;;;;;;4840197;29;20156;-86
2024/04/07 06:18:26;;;;;;;10.98;4.88;;;15.30;99.90;;;;;;4837231;29;20042;-85
2024/04/07 06:20:55;;;;;;;9.32;5.03;;;15.40;99.90;;;;;;4843417;29;20136;-85
2024/04/07 06:23:23;;;;;;;11.65;5.22;;;15.50;99.90;;;;;;4836922;29;20064;-86
2024/04/07 06:25:51;;;;;;;8.00;4.55;;;15.60;99.90;;;;;;4842579;29;20041;-85
2024/04/07 06:28:18;;;;;;;8.63;4.07;;;15.70;99.90;;;;;;4846560;29;20077;-87
2024/04/07 06:30:48;;;;;;;8.07;4.72;;;15.90;99.90;;;;;;4838472;29;20033;-87
2024/04/07 06:33:16;;;;;;;8.10;4.00;;;15.90;99.90;;;;;;4850820;29;20044;-85
2024/04/07 06:35:44;;;;;;;7.00;4.00;;;16.00;99.90;;;;;;4849515;29;20568;-86
2024/04/07 06:38:11;;;;;;;7.47;4.63;;;16.10;99.90;;;;;;4837308;29;20490;-85
2024/04/07 06:40:39;;;;;;;11.05;5.05;;;16.30;99.90;;;;;;4848940;29;20130;-85
2024/04/07 06:43:06;;;;;;;8.02;5.28;;;16.40;99.90;;;;;;4831622;29;20045;-85
2024/04/07 06:45:34;;;;;;;6.82;4.20;;;16.50;99.90;;;;;;4852220;29;20090;-84
2024/04/07 06:48:01;;;;;;;8.45;4.55;;;16.70;99.90;;;;;;4836703;29;20707;-84
2024/04/07 06:50:32;;;;;;;8.68;4.75;;;16.80;99.90;;;;;;4856607;29;20383;-85
2024/04/07 06:52:59;;;;;;;7.13;4.47;;;17.10;99.90;;;;;;4849034;29;20088;-85
2024/04/07 06:55:27;;;;;;;7.07;3.55;;;17.10;99.90;;;;;;4839031;29;20109;-85
2024/04/07 06:57:55;;;;;;;7.88;4.00;;;17.20;99.90;;;;;;4833931;29;20041;-85
2024/04/07 07:00:23;;;;;;;7.38;3.95;;;17.30;99.90;;;;;;4841474;29;20038;-84
2024/04/07 07:02:50;;;;;;;5.18;3.67;;;17.40;99.90;;;;;;4841392;29;20461;-84
2024/04/07 07:05:19;;;;;;;7.18;4.05;;;17.50;99.90;;;;;;4834949;29;20042;-84
2024/04/07 07:07:47;;;;;;;8.05;4.32;;;17.50;99.90;;;;;;4852754;29;20045;-88
2024/04/07 07:10:16;;;;;;;6.22;3.72;;;17.60;99.90;;;;;;4837142;29;20128;-84
2024/04/07 07:12:42;;;;;;;8.13;3.83;;;17.70;99.90;;;;;;4841740;29;20073;-85
2024/04/07 07:15:11;;;;;;;7.57;3.75;;;17.90;99.90;;;;;;4838013;29;20521;-85
2024/04/07 07:17:37;;;;;;;7.10;3.55;;;18.00;99.90;;;;;;4836756;29;20109;-86
2024/04/07 07:20:06;;;;;;;7.65;3.80;;;18.10;99.90;;;;;;4833627;29;20504;-85
2024/04/07 07:22:33;;;;;;;5.35;3.28;;;18.20;99.90;;;;;;4831635;29;20662;-83
2024/04/07 07:25:05;;;;;;;5.18;2.47;;;18.30;99.90;;;;;;4852381;29;20045;-85
2024/04/07 07:27:33;;;;;;;5.60;2.45;;;18.40;99.90;;;;;;4838794;29;20557;-85
2024/04/07 07:30:00;;;;;;;5.10;2.33;;;18.50;99.90;;;;;;4837598;29;20478;-86
2024/04/07 07:32:27;;;;;;;5.70;3.22;;;18.60;99.90;;;;;;4847577;29;20147;-86
2024/04/07 07:34:54;;;;;;;5.68;2.92;;;18.70;99.90;;;;;;4842153;29;20037;-85
2024/04/07 07:37:21;;;;;;;5.15;2.72;;;18.80;99.90;;;;;;4827006;29;20052;-84
2024/04/07 07:39:49;;;;;;;4.68;2.50;;;18.90;99.90;;;;;;4843361;29;20041;-86
2024/04/07 07:42:17;;;;;;;6.63;2.22;;;19.10;99.90;;;;;;4843182;29;20075;-83
2024/04/07 07:44:45;;;;;;;7.38;2.80;;;19.20;99.90;;;;;;4854643;29;20050;-87
2024/04/07 07:47:12;;;;;;;5.18;2.10;;;19.30;99.90;;;;;;4855281;29;20134;-87
2024/04/07 07:49:40;;;;;;;7.35;2.78;;;19.40;99.90;;;;;;4856802;29;20053;-87
2024/04/07 07:52:06;;;;;;;5.70;2.78;;;19.60;99.90;;;;;;4840038;29;20046;-85
2024/04/07 07:54:35;;;;;;;5.53;2.60;;;19.60;99.90;;;;;;4850984;29;20049;-84
2024/04/07 07:57:02;;;;;;;4.65;2.63;;;19.50;99.90;;;;;;4855073;29;20133;-85
2024/04/07 07:59:31;;;;;;;4.25;2.63;;;19.70;99.90;;;;;;4839809;29;20041;-86
2024/04/07 08:01:57;;;;;;;7.55;2.60;;;19.80;99.90;;;;;;4832510;29;20162;-85
2024/04/07 08:04:25;;;;;;;4.97;2.03;;;19.90;99.90;;;;;;4842827;29;20037;-87
2024/04/07 08:06:52;;;;;;;4.75;1.80;;;20.00;99.90;;;;;;4840709;29;20144;-85
2024/04/07 08:09:23;;;;;;;6.07;2.33;;;20.20;99.90;;;;;;4837109;29;20140;-85
2024/04/07 08:11:50;;;;;;;4.93;3.00;;;20.30;99.90;;;;;;4843543;29;20042;-84
2024/04/07 08:14:19;;;;;;;6.93;2.50;;;20.30;99.90;;;;;;4848753;29;20304;-86
2024/04/07 08:16:48;;;;;;;4.65;2.38;;;20.50;99.90;;;;;;4839369;29;20053;-86
2024/04/07 08:19:17;;;;;;;3.78;2.00;;;21.20;99.90;;;;;;4839710;29;20132;-90
2024/04/07 08:21:44;;;;;;;4.03;2.45;;;20.60;99.90;;;;;;4841238;29;20041;-86
2024/04/07 08:24:12;;;;;;;3.40;1.52;;;20.70;99.90;;;;;;4838993;29;20049;-87
2024/04/07 08:26:39;;;;;;;4.55;2.28;;;20.80;99.90;;;;;;4850982;29;20041;-84
2024/04/07 08:29:07;;;;;;;6.20;2.10;;;20.90;99.90;;;;;;4841372;29;20034;-86
2024/04/07 08:31:35;;;;;;;4.82;2.38;;;21.00;99.90;;;;;;4839633;29;20140;-82
2024/04/07 08:34:03;;;;;;;5.45;2.10;;;21.00;99.90;;;;;;4846725;29;20107;-84
2024/04/07 08:36:30;;;;;;;6.63;2.08;;;21.10;99.90;;;;;;4839652;29;20557;-81
2024/04/07 08:38:57;;;;;;;3.20;1.50;;;21.10;99.80;;;;;;4830234;29;20652;-83
2024/04/07 08:41:25;;;;;;;6.03;1.55;;;21.20;99.80;;;;;;4851062;29;20136;-86
2024/04/07 08:43:53;;;;;;;4.68;1.65;;;21.30;98.80;;;;;;4845940;29;20055;-84
2024/04/07 08:46:21;;;;;;;5.22;1.48;;;21.40;98.80;;;;;;4853611;29;20136;-85
2024/04/07 08:48:52;;;;;;;3.15;1.67;;;21.50;98.80;;;;;;4847817;29;20152;-84
2024/04/07 08:51:20;;;;;;;4.75;1.48;;;21.60;98.10;;;;;;4835667;29;20093;-84
2024/04/07 08:53:48;;;;;;;3.63;1.38;;;21.70;98.90;;;;;;4839527;29;20494;-84
2024/04/07 08:56:15;;;;;;;3.13;1.30;;;21.80;96.70;;;;;;4844697;29;20124;-81
2024/04/07 08:58:44;;;;;;;3.25;1.45;;;21.90;97.80;;;;;;4842126;29;20106;-84
2024/04/07 09:01:15;;;;;;;2.08;1.52;;;22.10;97.50;;;;;;4848096;29;20063;-84
2024/04/07 09:03:43;;;;;;;2.35;1.20;;;22.10;97.20;;;;;;4836863;29;20070;-87
2024/04/07 09:06:10;;;;;;;5.13;1.60;;;22.00;95.90;;;;;;4838633;29;20049;-85
2024/04/07 09:08:42;;;;;;;3.15;1.33;;;22.10;96.10;;;;;;4840578;29;20132;-84
2024/04/07 09:11:09;;;;;;;4.07;1.50;;;22.20;96.20;;;;;;4838849;29;20065;-87
2024/04/07 09:13:38;;;;;;;2.78;1.25;;;22.30;95.30;;;;;;4832633;29;20037;-83
2024/04/07 09:16:05;;;;;;;3.03;1.25;;;22.40;95.50;;;;;;4828628;29;20041;-84
2024/04/07 09:18:33;;;;;;;3.63;1.20;;;22.40;94.40;;;;;;4825417;29;20163;-85
2024/04/07 09:21:00;;;;;;;3.38;1.40;;;22.60;94.60;;;;;;4843492;29;20127;-86
2024/04/07 09:23:28;;;;;;;3.20;1.38;;;22.60;94.50;;;;;;4835226;29;20049;-82
2024/04/07 09:25:56;;;;;;;2.92;1.40;;;22.70;93.90;;;;;;4834422;29;20474;-83
2024/04/07 09:28:24;;;;;;;2.20;1.10;;;22.50;93.60;;;;;;4835005;29;20042;-84
2024/04/07 09:30:53;;;;;;;2.53;1.17;;;22.40;92.90;;;;;;4831787;29;20037;-84
2024/04/07 09:33:21;;;;;;;2.63;1.15;;;22.70;93.10;;;;;;4841800;29;20037;-82
2024/04/07 09:35:47;;;;;;;6.55;2.03;;;22.90;93.80;;;;;;4837409;29;20059;-84
2024/04/07 09:38:15;;;;;;;2.55;1.40;;;22.90;92.30;;;;;;4849387;29;20050;-83
2024/04/07 09:40:46;;;;;;;3.13;1.10;;;23.00;92.40;;;;;;4839202;29;20048;-84
2024/04/07 09:43:16;;;;;;;3.60;1.77;;;23.00;91.70;;;;;;4837872;29;20136;-85
2024/04/07 09:45:48;;;;;;;2.40;1.10;;;23.10;91.50;;;;;;4846749;29;20065;-85
2024/04/07 09:48:18;;;;;;;3.53;1.17;;;23.10;92.20;;;;;;4828796;29;20041;-84
2024/04/07 09:50:48;;;;;;;3.97;1.30;;;23.20;91.70;;;;;;4835709;29;20067;-82
2024/04/07 09:53:21;;;;;;;10.00;1.05;;;23.30;91.40;;;;;;4837635;29;20468;-82
2024/04/07 09:55:50;;;;;;;4.88;1.15;;;23.20;91.10;;;;;;4842402;29;20140;-85
2024/04/07 09:58:23;;;;;;;4.00;1.38;;;23.10;91.60;;;;;;4841991;29;20041;-88
2024/04/07 10:00:50;;;;;;;2.38;1.30;;;23.20;91.30;;;;;;4844637;29;20045;-79
2024/04/07 10:03:18;;;;;;;3.58;0.90;;;23.30;91.00;;;;;;4816560;29;20041;-83
2024/04/07 10:05:45;;;;;;;3.15;1.05;;;23.40;90.50;;;;;;4849559;29;20042;-83
2024/04/07 10:08:13;;;;;;;2.47;1.00;;;23.40;90.30;;;;;;4833096;29;20498;-85
2024/04/07 10:10:41;;;;;;;3.80;1.20;;;23.40;90.00;;;;;;4852065;29;20049;-85
2024/04/07 10:13:10;;;;;;;2.90;0.77;;;23.50;90.00;;;;;;4831305;29;20454;-83
2024/04/07 10:15:39;;;;;;;1.60;0.65;;;23.60;88.10;;;;;;4833324;29;20045;-81
2024/04/07 10:18:13;;;;;;;1.60;0.82;;;23.60;88.00;;;;;;4836020;29;20045;-84
2024/04/07 10:20:40;;;;;;;2.38;0.52;;;23.40;85.70;;;;;;4840342;29;20037;-84
2024/04/07 10:23:08;;;;;;;1.35;0.40;;;23.70;83.80;;;;;;4853976;29;20029;-85
2024/04/07 10:25:35;;;;;;;3.83;1.35;;;23.60;83.50;;;;;;4842538;29;20063;-85
2024/04/07 10:28:04;;;;;;;2.47;1.20;;;23.70;86.00;;;;;;4836779;29;20571;-85
2024/04/07 10:30:34;;;;;;;2.33;0.98;;;23.80;86.90;;;;;;4841362;29;20045;-86
2024/04/07 10:33:03;;;;;;;6.47;1.52;;;24.00;87.90;;;;;;4836611;29;20081;-83
2024/04/07 10:35:30;;;;;;;7.35;1.52;;;23.80;86.70;;;;;;4851171;29;20067;-85
2024/04/07 10:38:01;;;;;;;1.23;0.70;;;24.10;88.80;;;;;;4838651;29;20045;-83
2024/04/07 10:40:31;;;;;;;1.77;0.93;;;24.10;84.50;;;;;;4852231;29;20077;-84
2024/04/07 10:43:00;;;;;;;1.40;0.90;;;24.20;85.70;;;;;;4852659;29;20052;-83
2024/04/07 10:45:27;;;;;;;1.73;0.80;;;24.10;83.60;;;;;;4841352;29;20057;-85
2024/04/07 10:47:55;;;;;;;2.78;0.80;;;24.30;84.90;;;;;;4851657;29;20046;-84
2024/04/07 10:50:24;;;;;;;2.05;0.80;;;24.10;82.40;;;;;;4843221;29;20136;-85
2024/04/07 10:52:59;;;;;;;3.08;0.70;;;24.10;84.00;;;;;;4851963;29;20612;-85
2024/04/07 10:55:26;;;;;;;2.20;1.05;;;24.00;83.80;;;;;;4841923;29;20143;-86
2024/04/07 10:57:54;;;;;;;1.35;0.65;;;24.10;84.00;;;;;;4840154;29;20068;-84
2024/04/07 11:00:21;;;;;;;3.28;0.70;;;24.20;84.10;;;;;;4834704;29;20647;-84
2024/04/07 11:02:49;;;;;;;3.67;1.30;;;24.20;83.40;;;;;;4842212;29;20118;-81
2024/04/07 11:05:17;;;;;;;2.78;0.70;;;24.30;84.10;;;;;;4839352;29;20055;-83
2024/04/07 11:07:47;;;;;;;3.47;1.10;;;24.30;83.70;;;;;;4835090;29;20068;-86
2024/04/07 11:10:15;;;;;;;4.53;0.93;;;24.30;83.70;;;;;;4844069;29;20144;-84
2024/04/07 11:12:44;;;;;;;3.58;0.52;;;24.20;83.10;;;;;;4843644;29;20049;-86
2024/04/07 11:15:15;;;;;;;1.58;0.50;;;24.20;84.50;;;;;;4851936;29;20573;-84
2024/04/07 11:17:43;;;;;;;3.95;0.70;;;24.40;82.40;;;;;;4840727;29;20059;-85
2024/04/07 11:20:12;;;;;;;4.70;1.00;;;24.30;83.90;;;;;;4853811;29;20057;-85
2024/04/07 11:22:40;;;;;;;2.55;1.10;;;24.40;82.90;;;;;;4838787;29;20043;-85
2024/04/07 11:25:08;;;;;;;1.92;1.05;;;24.30;83.40;;;;;;4837384;29;20061;-86
2024/04/07 11:27:36;;;;;;;3.60;0.80;;;24.40;82.90;;;;;;4837471;29;20049;-83
2024/04/07 11:30:03;;;;;;;5.22;1.00;;;24.30;82.10;;;;;;4841426;29;20211;-87
2024/04/07 11:32:31;;;;;;;2.33;0.90;;;24.40;83.80;;;;;;4823468;29;20054;-87
2024/04/07 11:34:59;;;;;;;3.00;0.70;;;24.50;84.40;;;;;;4852936;29;20049;-86
2024/04/07 11:37:27;;;;;;;2.90;0.88;;;24.50;83.10;;;;;;4837286;29;20037;-84
2024/04/07 11:39:54;;;;;;;2.78;0.98;;;24.60;83.90;;;;;;4841725;29;20065;-85
2024/04/07 11:42:25;;;;;;;1.67;0.80;;;24.60;84.20;;;;;;4843302;29;20140;-87
2024/04/07 11:44:52;;;;;;;3.00;1.00;;;24.90;85.00;;;;;;4837933;29;20184;-84
2024/04/07 11:47:21;;;;;;;2.92;0.60;;;24.50;82.00;;;;;;4850115;29;20068;-85
2024/04/07 11:49:49;;;;;;;2.75;0.98;;;24.60;82.80;;;;;;4825526;29;20071;-84
2024/04/07 11:52:16;;;;;;;1.33;0.88;;;24.60;83.90;;;;;;4836316;29;20039;-86
2024/04/07 11:54:43;;;;;;;3.72;0.98;;;24.00;84.00;;;;;;4854366;29;20073;-83
2024/04/07 11:57:11;;;;;;;2.38;0.93;;;24.90;83.30;;;;;;4835865;29;20034;-85
2024/04/07 11:59:40;;;;;;;1.48;0.60;;;24.90;82.30;;;;;;4840583;29;20088;-85
2024/04/07 12:02:08;;;;;;;2.67;0.80;;;25.00;83.90;;;;;;4852239;29;20065;-84
2024/04/07 12:04:34;;;;;;;2.83;0.80;;;25.00;82.80;;;;;;4852237;29;20088;-85
2024/04/07 12:07:02;;;;;;;3.38;0.68;;;25.10;82.00;;;;;;4832523;29;20076;-85
2024/04/07 12:09:30;;;;;;;2.08;0.80;;;25.00;81.40;;;;;;4839338;29;20042;-85
2024/04/07 12:11:58;;;;;;;2.55;0.98;;;25.10;83.30;;;;;;4836184;29;20040;-83
2024/04/07 12:14:25;;;;;;;2.10;0.82;;;25.20;82.10;;;;;;4824189;29;20044;-87
2024/04/07 12:16:54;;;;;;;1.45;0.60;;;25.20;82.60;;;;;;4841876;29;20045;-83
2024/04/07 12:19:21;;;;;;;1.45;0.70;;;25.10;82.70;;;;;;4839023;29;20051;-85
2024/04/07 12:21:49;;;;;;;2.50;0.80;;;25.30;82.10;;;;;;4843998;29;20446;-87
2024/04/07 12:24:16;;;;;;;1.10;0.75;;;25.30;82.30;;;;;;4850776;29;20516;-84
2024/04/07 12:26:46;;;;;;;2.20;0.73;;;25.40;82.50;;;;;;4854872;29;20095;-87
2024/04/07 12:29:13;;;;;;;3.22;1.05;;;25.50;82.10;;;;;;4840018;29;20497;-86
2024/04/07 12:31:40;;;;;;;2.17;0.65;;;25.40;81.10;;;;;;4832010;29;20041;-84
2024/04/07 12:34:08;;;;;;;1.67;0.88;;;25.40;81.10;;;;;;4829665;29;20137;-85
2024/04/07 12:36:37;;;;;;;3.13;0.82;;;25.40;81.80;;;;;;4836170;29;20049;-85
2024/04/07 12:39:04;;;;;;;12.73;1.30;;;25.40;81.00;;;;;;4836273;29;20045;-81
2024/04/07 12:41:32;;;;;;;4.80;0.95;;;26.30;82.70;;;;;;4839755;29;20045;-85
2024/04/07 12:43:59;;;;;;;4.40;0.90;;;25.40;81.40;;;;;;4835782;29;20037;-85
2024/04/07 12:46:27;;;;;;;2.58;1.23;;;24.90;80.60;;;;;;4836021;29;20073;-85
2024/04/07 12:48:53;;;;;;;5.15;1.15;;;25.40;81.60;;;;;;4819644;29;20042;-84